sensor_id;sensor_type;location;lat;lon;timestamp;temperature;humidity
6307;DHT22;3186;54.062;9.962;2022-11-15T00:01:55;6.50;99.90
6307;DHT22;3186;54.062;9.962;2022-11-15T00:04:39;6.50;99.90
6307;DHT22;3186;54.062;9.962;2022-11-15T00:07:23;6.40;99.90
6307;DHT22;3186;54.062;9.962;2022-11-15T00:10:07;6.40;99.90
6307;DHT22;3186;54.062;9.962;2022-11-15T00:12:52;6.40;99.90
6307;DHT22;3186;54.062;9.962;2022-11-15T00:15:41;6.40;99.90
6307;DHT22;3186;54.062;9.962;2022-11-15T00:18:26;6.40;99.90
6307;DHT22;3186;54.062;9.962;2022-11-15T00:21:11;6.40;99.90
6307;DHT22;3186;54.062;9.962;2022-11-15T00:23:56;6.40;99.90
6307;DHT22;3186;54.062;9.962;2022-11-15T00:26:41;6.50;99.90
6307;DHT22;3186;54.062;9.962;2022-11-15T00:29:26;6.40;99.90
6307;DHT22;3186;54.062;9.962;2022-11-15T00:32:10;6.40;99.90
6307;DHT22;3186;54.062;9.962;2022-11-15T00:34:54;6.40;99.90
6307;DHT22;3186;54.062;9.962;2022-11-15T00:37:39;6.40;99.90
6307;DHT22;3186;54.062;9.962;2022-11-15T00:40:23;6.40;99.90
6307;DHT22;3186;54.062;9.962;2022-11-15T00:43:07;6.40;99.90
6307;DHT22;3186;54.062;9.962;2022-11-15T00:45:52;6.40;99.90
6307;DHT22;3186;54.062;9.962;2022-11-15T00:48:37;6.40;99.90
6307;DHT22;3186;54.062;9.962;2022-11-15T00:51:21;6.40;99.90
6307;DHT22;3186;54.062;9.962;2022-11-15T00:54:06;6.40;99.90
6307;DHT22;3186;54.062;9.962;2022-11-15T00:56:51;6.40;99.90
6307;DHT22;3186;54.062;9.962;2022-11-15T00:59:35;6.30;99.90
6307;DHT22;3186;54.062;9.962;2022-11-15T01:02:19;6.40;99.90
6307;DHT22;3186;54.062;9.962;2022-11-15T01:05:03;6.40;99.90
6307;DHT22;3186;54.062;9.962;2022-11-15T01:07:52;6.40;99.90
6307;DHT22;3186;54.062;9.962;2022-11-15T01:10:37;6.40;99.90
6307;DHT22;3186;54.062;9.962;2022-11-15T01:13:21;6.30;99.90
6307;DHT22;3186;54.062;9.962;2022-11-15T01:16:10;6.30;99.90
6307;DHT22;3186;54.062;9.962;2022-11-15T01:18:56;6.30;99.90
6307;DHT22;3186;54.062;9.962;2022-11-15T01:21:40;6.40;99.90
6307;DHT22;3186;54.062;9.962;2022-11-15T01:24:24;6.40;99.90
6307;DHT22;3186;54.062;9.962;2022-11-15T01:27:08;6.40;99.90
6307;DHT22;3186;54.062;9.962;2022-11-15T01:29:53;6.40;99.90
6307;DHT22;3186;54.062;9.962;2022-11-15T01:32:37;6.40;99.90
6307;DHT22;3186;54.062;9.962;2022-11-15T01:35:21;6.40;99.90
6307;DHT22;3186;54.062;9.962;2022-11-15T01:38:07;6.40;99.90
6307;DHT22;3186;54.062;9.962;2022-11-15T01:40:51;6.30;99.90
6307;DHT22;3186;54.062;9.962;2022-11-15T01:43:36;6.40;99.90
6307;DHT22;3186;54.062;9.962;2022-11-15T01:46:33;6.40;99.90
6307;DHT22;3186;54.062;9.962;2022-11-15T01:49:21;6.40;99.90
6307;DHT22;3186;54.062;9.962;2022-11-15T01:52:10;6.30;99.90
6307;DHT22;3186;54.062;9.962;2022-11-15T01:55:10;6.30;99.90
6307;DHT22;3186;54.062;9.962;2022-11-15T01:58:00;6.30;99.90
6307;DHT22;3186;54.062;9.962;2022-11-15T02:00:46;6.30;99.90
6307;DHT22;3186;54.062;9.962;2022-11-15T02:04:02;6.30;99.90
6307;DHT22;3186;54.062;9.962;2022-11-15T02:06:46;6.30;99.90
6307;DHT22;3186;54.062;9.962;2022-11-15T02:09:32;6.30;99.90
6307;DHT22;3186;54.062;9.962;2022-11-15T02:12:19;6.30;99.90
6307;DHT22;3186;54.062;9.962;2022-11-15T02:15:06;6.30;99.90
6307;DHT22;3186;54.062;9.962;2022-11-15T02:27:22;6.30;99.90
6307;DHT22;3186;54.062;9.962;2022-11-15T02:39:27;6.20;99.90
6307;DHT22;3186;54.062;9.962;2022-11-15T02:42:23;6.20;99.90
6307;DHT22;3186;54.062;9.962;2022-11-15T02:45:31;6.20;99.90
6307;DHT22;3186;54.062;9.962;2022-11-15T02:48:17;6.10;99.90
6307;DHT22;3186;54.062;9.962;2022-11-15T02:51:03;6.10;99.90
6307;DHT22;3186;54.062;9.962;2022-11-15T02:53:48;6.10;99.90
6307;DHT22;3186;54.062;9.962;2022-11-15T02:56:32;6.10;99.90
6307;DHT22;3186;54.062;9.962;2022-11-15T03:06:20;6.00;99.90
6307;DHT22;3186;54.062;9.962;2022-11-15T03:09:11;6.40;99.90
6307;DHT22;3186;54.062;9.962;2022-11-15T03:12:15;5.90;99.90
6307;DHT22;3186;54.062;9.962;2022-11-15T03:15:06;5.90;99.90
6307;DHT22;3186;54.062;9.962;2022-11-15T03:18:00;5.90;99.90
6307;DHT22;3186;54.062;9.962;2022-11-15T03:20:46;5.90;99.90
6307;DHT22;3186;54.062;9.962;2022-11-15T03:23:31;5.80;99.90
6307;DHT22;3186;54.062;9.962;2022-11-15T03:26:19;5.80;99.90
6307;DHT22;3186;54.062;9.962;2022-11-15T03:29:15;5.80;99.90
6307;DHT22;3186;54.062;9.962;2022-11-15T03:32:05;5.80;99.90
6307;DHT22;3186;54.062;9.962;2022-11-15T03:34:56;5.80;99.90
6307;DHT22;3186;54.062;9.962;2022-11-15T03:40:39;5.70;99.90
6307;DHT22;3186;54.062;9.962;2022-11-15T03:47:01;5.70;99.90
6307;DHT22;3186;54.062;9.962;2022-11-15T03:49:46;5.60;99.90
6307;DHT22;3186;54.062;9.962;2022-11-15T03:52:34;5.60;99.90
6307;DHT22;3186;54.062;9.962;2022-11-15T03:55:20;5.60;99.90
6307;DHT22;3186;54.062;9.962;2022-11-15T03:58:04;5.60;99.90
6307;DHT22;3186;54.062;9.962;2022-11-15T04:00:49;5.60;99.90
6307;DHT22;3186;54.062;9.962;2022-11-15T04:03:33;5.50;99.90
6307;DHT22;3186;54.062;9.962;2022-11-15T04:06:17;5.60;99.90
6307;DHT22;3186;54.062;9.962;2022-11-15T04:09:01;5.50;99.90
6307;DHT22;3186;54.062;9.962;2022-11-15T04:11:45;5.50;99.90
6307;DHT22;3186;54.062;9.962;2022-11-15T04:14:29;5.50;99.90
6307;DHT22;3186;54.062;9.962;2022-11-15T04:17:14;5.50;99.90
6307;DHT22;3186;54.062;9.962;2022-11-15T04:19:58;5.50;99.90
6307;DHT22;3186;54.062;9.962;2022-11-15T04:23:04;5.50;99.90
6307;DHT22;3186;54.062;9.962;2022-11-15T04:26:19;5.50;99.90
6307;DHT22;3186;54.062;9.962;2022-11-15T04:29:04;5.50;99.90
6307;DHT22;3186;54.062;9.962;2022-11-15T04:32:07;5.40;99.90
6307;DHT22;3186;54.062;9.962;2022-11-15T04:34:51;5.40;99.90
6307;DHT22;3186;54.062;9.962;2022-11-15T04:37:35;5.40;99.90
6307;DHT22;3186;54.062;9.962;2022-11-15T04:40:19;5.40;99.90
6307;DHT22;3186;54.062;9.962;2022-11-15T04:43:04;5.40;99.90
6307;DHT22;3186;54.062;9.962;2022-11-15T04:45:49;5.40;99.90
6307;DHT22;3186;54.062;9.962;2022-11-15T04:48:33;5.40;99.90
6307;DHT22;3186;54.062;9.962;2022-11-15T04:51:17;5.40;99.90
6307;DHT22;3186;54.062;9.962;2022-11-15T04:54:02;5.30;99.90
6307;DHT22;3186;54.062;9.962;2022-11-15T04:56:47;5.30;99.90
6307;DHT22;3186;54.062;9.962;2022-11-15T04:59:31;5.30;99.90
6307;DHT22;3186;54.062;9.962;2022-11-15T05:02:15;4.10;99.90
6307;DHT22;3186;54.062;9.962;2022-11-15T05:04:59;5.30;99.90
6307;DHT22;3186;54.062;9.962;2022-11-15T05:07:43;5.20;99.90
6307;DHT22;3186;54.062;9.962;2022-11-15T05:10:27;5.30;99.90
6307;DHT22;3186;54.062;9.962;2022-11-15T05:13:11;5.20;99.90
6307;DHT22;3186;54.062;9.962;2022-11-15T05:15:56;5.20;99.90
6307;DHT22;3186;54.062;9.962;2022-11-15T05:18:40;5.20;99.90
6307;DHT22;3186;54.062;9.962;2022-11-15T05:21:25;5.20;99.90
6307;DHT22;3186;54.062;9.962;2022-11-15T05:24:10;5.20;99.90
6307;DHT22;3186;54.062;9.962;2022-11-15T05:26:54;5.20;99.90
6307;DHT22;3186;54.062;9.962;2022-11-15T05:29:38;5.20;99.90
6307;DHT22;3186;54.062;9.962;2022-11-15T05:32:23;5.20;99.90
6307;DHT22;3186;54.062;9.962;2022-11-15T05:35:13;5.20;99.90
6307;DHT22;3186;54.062;9.962;2022-11-15T05:38:01;5.40;99.90
6307;DHT22;3186;54.062;9.962;2022-11-15T05:40:46;5.40;99.90
6307;DHT22;3186;54.062;9.962;2022-11-15T05:43:32;5.40;99.90
6307;DHT22;3186;54.062;9.962;2022-11-15T05:46:18;5.40;99.90
6307;DHT22;3186;54.062;9.962;2022-11-15T05:49:05;5.40;99.90
6307;DHT22;3186;54.062;9.962;2022-11-15T05:51:51;5.40;99.90
6307;DHT22;3186;54.062;9.962;2022-11-15T05:54:37;5.50;99.90
6307;DHT22;3186;54.062;9.962;2022-11-15T05:57:22;5.50;99.90
6307;DHT22;3186;54.062;9.962;2022-11-15T06:00:07;5.50;99.90
6307;DHT22;3186;54.062;9.962;2022-11-15T06:02:53;5.50;99.90
6307;DHT22;3186;54.062;9.962;2022-11-15T06:05:37;5.60;99.90
6307;DHT22;3186;54.062;9.962;2022-11-15T06:08:21;5.60;99.90
6307;DHT22;3186;54.062;9.962;2022-11-15T06:11:06;5.60;99.90
6307;DHT22;3186;54.062;9.962;2022-11-15T06:13:51;5.60;99.90
6307;DHT22;3186;54.062;9.962;2022-11-15T06:16:35;5.60;99.90
6307;DHT22;3186;54.062;9.962;2022-11-15T06:19:20;5.60;99.90
6307;DHT22;3186;54.062;9.962;2022-11-15T06:22:04;5.70;99.90
6307;DHT22;3186;54.062;9.962;2022-11-15T06:24:48;5.70;99.90
6307;DHT22;3186;54.062;9.962;2022-11-15T06:27:33;5.70;99.90
6307;DHT22;3186;54.062;9.962;2022-11-15T06:30:17;5.70;99.90
6307;DHT22;3186;54.062;9.962;2022-11-15T06:33:03;5.70;99.90
6307;DHT22;3186;54.062;9.962;2022-11-15T06:35:47;5.70;99.90
6307;DHT22;3186;54.062;9.962;2022-11-15T06:38:32;5.80;99.90
6307;DHT22;3186;54.062;9.962;2022-11-15T06:41:16;5.80;99.90
6307;DHT22;3186;54.062;9.962;2022-11-15T06:44:02;5.80;99.90
6307;DHT22;3186;54.062;9.962;2022-11-15T06:46:47;5.80;99.90
6307;DHT22;3186;54.062;9.962;2022-11-15T06:49:31;6.50;99.90
6307;DHT22;3186;54.062;9.962;2022-11-15T06:52:15;5.90;99.90
6307;DHT22;3186;54.062;9.962;2022-11-15T06:55:02;5.90;99.90
6307;DHT22;3186;54.062;9.962;2022-11-15T06:57:51;5.90;99.90
6307;DHT22;3186;54.062;9.962;2022-11-15T07:00:35;5.90;99.90
6307;DHT22;3186;54.062;9.962;2022-11-15T07:03:20;5.90;99.90
6307;DHT22;3186;54.062;9.962;2022-11-15T07:06:04;6.00;99.90
6307;DHT22;3186;54.062;9.962;2022-11-15T07:08:49;6.00;99.90
6307;DHT22;3186;54.062;9.962;2022-11-15T07:11:34;6.00;99.90
6307;DHT22;3186;54.062;9.962;2022-11-15T07:14:19;6.00;99.90
6307;DHT22;3186;54.062;9.962;2022-11-15T07:17:04;6.10;99.90
6307;DHT22;3186;54.062;9.962;2022-11-15T07:19:49;6.10;99.90
6307;DHT22;3186;54.062;9.962;2022-11-15T07:22:33;6.10;99.90
6307;DHT22;3186;54.062;9.962;2022-11-15T07:25:17;6.20;99.90
6307;DHT22;3186;54.062;9.962;2022-11-15T07:28:02;6.30;99.90
6307;DHT22;3186;54.062;9.962;2022-11-15T07:30:46;6.20;99.90
6307;DHT22;3186;54.062;9.962;2022-11-15T07:33:31;6.20;99.90
6307;DHT22;3186;54.062;9.962;2022-11-15T07:36:15;6.20;99.90
6307;DHT22;3186;54.062;9.962;2022-11-15T07:39:00;6.30;99.90
6307;DHT22;3186;54.062;9.962;2022-11-15T07:41:44;5.80;99.90
6307;DHT22;3186;54.062;9.962;2022-11-15T07:44:30;6.40;99.90
6307;DHT22;3186;54.062;9.962;2022-11-15T07:47:14;6.30;99.90
6307;DHT22;3186;54.062;9.962;2022-11-15T07:49:59;6.40;99.90
6307;DHT22;3186;54.062;9.962;2022-11-15T07:52:43;6.30;99.90
6307;DHT22;3186;54.062;9.962;2022-11-15T07:55:27;6.40;99.90
6307;DHT22;3186;54.062;9.962;2022-11-15T07:58:13;6.50;99.90
6307;DHT22;3186;54.062;9.962;2022-11-15T08:00:57;6.50;99.90
6307;DHT22;3186;54.062;9.962;2022-11-15T08:03:41;6.60;99.90
6307;DHT22;3186;54.062;9.962;2022-11-15T08:06:26;6.60;99.90
6307;DHT22;3186;54.062;9.962;2022-11-15T08:09:10;6.60;99.90
6307;DHT22;3186;54.062;9.962;2022-11-15T08:11:54;6.70;99.90
6307;DHT22;3186;54.062;9.962;2022-11-15T08:14:38;6.70;99.90
6307;DHT22;3186;54.062;9.962;2022-11-15T08:17:26;6.70;99.90
6307;DHT22;3186;54.062;9.962;2022-11-15T08:20:10;6.70;99.90
6307;DHT22;3186;54.062;9.962;2022-11-15T08:22:55;6.70;99.90
6307;DHT22;3186;54.062;9.962;2022-11-15T08:25:40;6.80;99.90
6307;DHT22;3186;54.062;9.962;2022-11-15T08:28:26;6.80;99.90
6307;DHT22;3186;54.062;9.962;2022-11-15T08:31:14;6.80;99.90
6307;DHT22;3186;54.062;9.962;2022-11-15T08:34:00;6.90;99.90
6307;DHT22;3186;54.062;9.962;2022-11-15T08:36:46;6.90;99.90
6307;DHT22;3186;54.062;9.962;2022-11-15T08:39:30;6.90;99.90
6307;DHT22;3186;54.062;9.962;2022-11-15T08:42:15;6.90;99.90
6307;DHT22;3186;54.062;9.962;2022-11-15T08:45:00;7.00;99.90
6307;DHT22;3186;54.062;9.962;2022-11-15T08:47:44;7.00;99.90
6307;DHT22;3186;54.062;9.962;2022-11-15T08:50:29;7.00;99.90
6307;DHT22;3186;54.062;9.962;2022-11-15T08:53:13;7.10;99.90
6307;DHT22;3186;54.062;9.962;2022-11-15T08:55:57;7.20;99.90
6307;DHT22;3186;54.062;9.962;2022-11-15T08:58:41;7.20;99.90
6307;DHT22;3186;54.062;9.962;2022-11-15T09:01:26;7.10;99.90
6307;DHT22;3186;54.062;9.962;2022-11-15T09:04:11;7.20;99.90
6307;DHT22;3186;54.062;9.962;2022-11-15T09:06:55;7.20;99.90
6307;DHT22;3186;54.062;9.962;2022-11-15T09:09:40;7.30;99.90
6307;DHT22;3186;54.062;9.962;2022-11-15T09:12:25;7.30;99.90
6307;DHT22;3186;54.062;9.962;2022-11-15T09:15:09;7.20;99.90
6307;DHT22;3186;54.062;9.962;2022-11-15T09:17:54;7.30;99.90
6307;DHT22;3186;54.062;9.962;2022-11-15T09:20:41;7.30;99.90
6307;DHT22;3186;54.062;9.962;2022-11-15T09:23:26;7.40;99.90
6307;DHT22;3186;54.062;9.962;2022-11-15T09:26:10;7.40;99.90
6307;DHT22;3186;54.062;9.962;2022-11-15T09:28:55;7.40;99.90
6307;DHT22;3186;54.062;9.962;2022-11-15T09:31:39;7.50;99.90
6307;DHT22;3186;54.062;9.962;2022-11-15T09:34:23;7.50;99.90
6307;DHT22;3186;54.062;9.962;2022-11-15T09:37:08;7.60;99.90
6307;DHT22;3186;54.062;9.962;2022-11-15T09:39:52;7.70;99.90
6307;DHT22;3186;54.062;9.962;2022-11-15T09:42:49;7.60;99.90
6307;DHT22;3186;54.062;9.962;2022-11-15T09:48:57;7.70;99.90
6307;DHT22;3186;54.062;9.962;2022-11-15T09:51:40;7.70;99.90
6307;DHT22;3186;54.062;9.962;2022-11-15T09:54:31;7.80;99.90
6307;DHT22;3186;54.062;9.962;2022-11-15T09:57:12;7.80;99.90
6307;DHT22;3186;54.062;9.962;2022-11-15T10:03:01;7.70;99.90
6307;DHT22;3186;54.062;9.962;2022-11-15T10:05:40;7.90;99.90
6307;DHT22;3186;54.062;9.962;2022-11-15T10:08:24;7.90;99.90
6307;DHT22;3186;54.062;9.962;2022-11-15T10:11:11;7.90;99.90
6307;DHT22;3186;54.062;9.962;2022-11-15T10:13:41;7.90;99.90
6307;DHT22;3186;54.062;9.962;2022-11-15T10:22:08;8.00;99.90
6307;DHT22;3186;54.062;9.962;2022-11-15T10:24:41;7.90;99.90
6307;DHT22;3186;54.062;9.962;2022-11-15T10:27:12;8.00;99.90
6307;DHT22;3186;54.062;9.962;2022-11-15T10:29:44;8.00;99.90
6307;DHT22;3186;54.062;9.962;2022-11-15T10:32:12;8.10;99.90
6307;DHT22;3186;54.062;9.962;2022-11-15T10:34:38;8.20;99.90
6307;DHT22;3186;54.062;9.962;2022-11-15T10:37:03;8.30;99.90
6307;DHT22;3186;54.062;9.962;2022-11-15T10:39:29;8.40;99.90
6307;DHT22;3186;54.062;9.962;2022-11-15T10:41:55;8.30;99.90
6307;DHT22;3186;54.062;9.962;2022-11-15T10:44:25;8.20;99.90
6307;DHT22;3186;54.062;9.962;2022-11-15T10:49:22;8.30;99.90
6307;DHT22;3186;54.062;9.962;2022-11-15T10:54:37;8.40;99.90
6307;DHT22;3186;54.062;9.962;2022-11-15T10:57:13;8.40;99.90
6307;DHT22;3186;54.062;9.962;2022-11-15T10:59:47;8.40;99.90
6307;DHT22;3186;54.062;9.962;2022-11-15T11:02:34;8.50;99.90
6307;DHT22;3186;54.062;9.962;2022-11-15T11:05:02;8.50;99.90
6307;DHT22;3186;54.062;9.962;2022-11-15T11:07:32;8.40;99.90
6307;DHT22;3186;54.062;9.962;2022-11-15T11:10:13;8.40;99.90
6307;DHT22;3186;54.062;9.962;2022-11-15T11:12:42;8.50;99.90
6307;DHT22;3186;54.062;9.962;2022-11-15T11:15:14;8.60;99.90
6307;DHT22;3186;54.062;9.962;2022-11-15T11:20:33;8.70;99.90
6307;DHT22;3186;54.062;9.962;2022-11-15T11:23:34;8.80;99.90
6307;DHT22;3186;54.062;9.962;2022-11-15T11:34:34;9.00;99.90
6307;DHT22;3186;54.062;9.962;2022-11-15T11:37:40;9.10;99.90
6307;DHT22;3186;54.062;9.962;2022-11-15T11:40:16;9.20;99.90
6307;DHT22;3186;54.062;9.962;2022-11-15T11:50:52;9.40;99.90
6307;DHT22;3186;54.062;9.962;2022-11-15T11:53:27;9.30;99.90
6307;DHT22;3186;54.062;9.962;2022-11-15T11:55:57;9.50;99.90
6307;DHT22;3186;54.062;9.962;2022-11-15T11:58:34;9.60;99.90
6307;DHT22;3186;54.062;9.962;2022-11-15T12:01:16;9.70;99.90
6307;DHT22;3186;54.062;9.962;2022-11-15T12:06:37;9.60;99.90
6307;DHT22;3186;54.062;9.962;2022-11-15T12:12:49;9.60;99.90
6307;DHT22;3186;54.062;9.962;2022-11-15T12:15:20;9.70;99.90
6307;DHT22;3186;54.062;9.962;2022-11-15T12:17:48;9.70;99.90
6307;DHT22;3186;54.062;9.962;2022-11-15T12:20:22;9.70;99.90
6307;DHT22;3186;54.062;9.962;2022-11-15T12:22:58;9.80;99.90
6307;DHT22;3186;54.062;9.962;2022-11-15T12:25:30;9.80;99.90
6307;DHT22;3186;54.062;9.962;2022-11-15T12:28:47;9.90;99.90
6307;DHT22;3186;54.062;9.962;2022-11-15T12:33:41;9.90;99.90
6307;DHT22;3186;54.062;9.962;2022-11-15T12:38:57;10.00;99.90
6307;DHT22;3186;54.062;9.962;2022-11-15T12:41:28;9.90;99.90
6307;DHT22;3186;54.062;9.962;2022-11-15T12:43:55;10.00;99.90
6307;DHT22;3186;54.062;9.962;2022-11-15T12:59:57;10.10;99.90
6307;DHT22;3186;54.062;9.962;2022-11-15T13:02:44;10.10;99.90
6307;DHT22;3186;54.062;9.962;2022-11-15T13:28:03;10.10;99.90
6307;DHT22;3186;54.062;9.962;2022-11-15T13:30:35;10.10;99.90
6307;DHT22;3186;54.062;9.962;2022-11-15T13:33:08;10.10;99.90
6307;DHT22;3186;54.062;9.962;2022-11-15T13:35:39;10.10;99.90
6307;DHT22;3186;54.062;9.962;2022-11-15T13:38:06;10.10;99.90
6307;DHT22;3186;54.062;9.962;2022-11-15T13:40:37;10.20;99.90
6307;DHT22;3186;54.062;9.962;2022-11-15T13:46:21;10.00;99.90
6307;DHT22;3186;54.062;9.962;2022-11-15T13:49:03;10.00;99.90
6307;DHT22;3186;54.062;9.962;2022-11-15T13:51:39;10.10;99.90
6307;DHT22;3186;54.062;9.962;2022-11-15T13:54:23;10.10;99.90
6307;DHT22;3186;54.062;9.962;2022-11-15T13:56:58;10.20;99.90
6307;DHT22;3186;54.062;9.962;2022-11-15T13:59:36;10.20;99.90
6307;DHT22;3186;54.062;9.962;2022-11-15T14:02:14;10.20;99.90
6307;DHT22;3186;54.062;9.962;2022-11-15T14:04:51;10.30;99.90
6307;DHT22;3186;54.062;9.962;2022-11-15T14:07:22;10.40;99.90
6307;DHT22;3186;54.062;9.962;2022-11-15T14:09:48;10.40;99.90
6307;DHT22;3186;54.062;9.962;2022-11-15T14:14:57;10.30;99.90
6307;DHT22;3186;54.062;9.962;2022-11-15T14:19:55;10.40;99.90
6307;DHT22;3186;54.062;9.962;2022-11-15T14:22:23;10.40;99.90
6307;DHT22;3186;54.062;9.962;2022-11-15T14:25:21;10.40;99.90
6307;DHT22;3186;54.062;9.962;2022-11-15T14:30:39;10.40;99.90
6307;DHT22;3186;54.062;9.962;2022-11-15T14:35:44;10.30;99.90
6307;DHT22;3186;54.062;9.962;2022-11-15T14:38:10;10.30;99.90
6307;DHT22;3186;54.062;9.962;2022-11-15T14:40:35;10.30;99.90
6307;DHT22;3186;54.062;9.962;2022-11-15T14:43:01;10.40;99.90
6307;DHT22;3186;54.062;9.962;2022-11-15T14:45:27;10.40;99.90
6307;DHT22;3186;54.062;9.962;2022-11-15T14:47:53;10.40;99.90
6307;DHT22;3186;54.062;9.962;2022-11-15T14:50:20;10.40;99.90
6307;DHT22;3186;54.062;9.962;2022-11-15T14:52:48;10.40;99.90
6307;DHT22;3186;54.062;9.962;2022-11-15T14:57:45;10.40;99.90
6307;DHT22;3186;54.062;9.962;2022-11-15T15:00:12;10.40;99.90
6307;DHT22;3186;54.062;9.962;2022-11-15T15:02:39;10.40;99.90
6307;DHT22;3186;54.062;9.962;2022-11-15T15:05:22;10.40;99.90
6307;DHT22;3186;54.062;9.962;2022-11-15T15:07:49;10.40;99.90
6307;DHT22;3186;54.062;9.962;2022-11-15T15:10:16;10.30;99.90
6307;DHT22;3186;54.062;9.962;2022-11-15T15:12:42;10.30;99.90
6307;DHT22;3186;54.062;9.962;2022-11-15T15:15:32;10.30;99.90
6307;DHT22;3186;54.062;9.962;2022-11-15T15:17:58;10.30;99.90
6307;DHT22;3186;54.062;9.962;2022-11-15T15:20:24;10.20;99.90
6307;DHT22;3186;54.062;9.962;2022-11-15T15:22:49;10.30;99.90
6307;DHT22;3186;54.062;9.962;2022-11-15T15:25:26;10.20;99.90
6307;DHT22;3186;54.062;9.962;2022-11-15T15:27:53;10.20;99.90
6307;DHT22;3186;54.062;9.962;2022-11-15T15:30:20;10.20;99.90
6307;DHT22;3186;54.062;9.962;2022-11-15T15:32:45;10.20;99.90
6307;DHT22;3186;54.062;9.962;2022-11-15T15:35:13;10.20;99.90
6307;DHT22;3186;54.062;9.962;2022-11-15T15:37:40;10.20;99.90
6307;DHT22;3186;54.062;9.962;2022-11-15T15:40:18;10.10;99.90
6307;DHT22;3186;54.062;9.962;2022-11-15T15:42:44;10.10;99.90
6307;DHT22;3186;54.062;9.962;2022-11-15T15:45:10;10.00;99.90
6307;DHT22;3186;54.062;9.962;2022-11-15T15:47:36;10.00;99.90
6307;DHT22;3186;54.062;9.962;2022-11-15T15:50:04;9.90;99.90
6307;DHT22;3186;54.062;9.962;2022-11-15T15:52:30;9.90;99.90
6307;DHT22;3186;54.062;9.962;2022-11-15T15:54:56;9.90;99.90
6307;DHT22;3186;54.062;9.962;2022-11-15T15:57:22;9.90;99.90
6307;DHT22;3186;54.062;9.962;2022-11-15T15:59:47;9.90;99.90
6307;DHT22;3186;54.062;9.962;2022-11-15T16:02:14;9.90;99.90
6307;DHT22;3186;54.062;9.962;2022-11-15T16:04:40;9.90;99.90
6307;DHT22;3186;54.062;9.962;2022-11-15T16:07:15;9.90;99.90
6307;DHT22;3186;54.062;9.962;2022-11-15T16:09:41;9.80;99.90
6307;DHT22;3186;54.062;9.962;2022-11-15T16:12:29;9.90;99.90
6307;DHT22;3186;54.062;9.962;2022-11-15T16:14:56;9.80;99.90
6307;DHT22;3186;54.062;9.962;2022-11-15T16:17:24;9.80;99.90
6307;DHT22;3186;54.062;9.962;2022-11-15T16:19:51;9.80;99.90
6307;DHT22;3186;54.062;9.962;2022-11-15T16:22:17;9.80;99.90
6307;DHT22;3186;54.062;9.962;2022-11-15T16:24:43;9.80;99.90
6307;DHT22;3186;54.062;9.962;2022-11-15T16:27:16;9.80;99.90
6307;DHT22;3186;54.062;9.962;2022-11-15T16:29:43;9.80;99.90
6307;DHT22;3186;54.062;9.962;2022-11-15T16:32:09;9.70;99.90
6307;DHT22;3186;54.062;9.962;2022-11-15T16:34:35;9.70;99.90
6307;DHT22;3186;54.062;9.962;2022-11-15T16:37:01;9.70;99.90
6307;DHT22;3186;54.062;9.962;2022-11-15T16:39:27;9.70;99.90
6307;DHT22;3186;54.062;9.962;2022-11-15T16:41:59;9.70;99.90
6307;DHT22;3186;54.062;9.962;2022-11-15T16:44:25;9.70;99.90
6307;DHT22;3186;54.062;9.962;2022-11-15T16:46:51;9.70;99.90
6307;DHT22;3186;54.062;9.962;2022-11-15T16:49:19;9.60;99.90
6307;DHT22;3186;54.062;9.962;2022-11-15T16:51:45;9.60;99.90
6307;DHT22;3186;54.062;9.962;2022-11-15T16:54:12;9.60;99.90
6307;DHT22;3186;54.062;9.962;2022-11-15T16:56:38;9.60;99.90
6307;DHT22;3186;54.062;9.962;2022-11-15T16:59:04;9.60;99.90
6307;DHT22;3186;54.062;9.962;2022-11-15T17:01:31;9.50;99.90
6307;DHT22;3186;54.062;9.962;2022-11-15T17:03:58;9.50;99.90
6307;DHT22;3186;54.062;9.962;2022-11-15T17:06:25;9.50;99.90
6307;DHT22;3186;54.062;9.962;2022-11-15T17:08:51;9.50;99.90
6307;DHT22;3186;54.062;9.962;2022-11-15T17:11:19;9.50;99.90
6307;DHT22;3186;54.062;9.962;2022-11-15T17:13:45;9.40;99.90
6307;DHT22;3186;54.062;9.962;2022-11-15T17:16:15;9.40;99.90
6307;DHT22;3186;54.062;9.962;2022-11-15T17:18:41;9.40;99.90
6307;DHT22;3186;54.062;9.962;2022-11-15T17:21:13;9.50;99.90
6307;DHT22;3186;54.062;9.962;2022-11-15T17:23:39;9.50;99.90
6307;DHT22;3186;54.062;9.962;2022-11-15T17:26:06;9.50;99.90
6307;DHT22;3186;54.062;9.962;2022-11-15T17:28:33;9.40;99.90
6307;DHT22;3186;54.062;9.962;2022-11-15T17:30:59;9.40;99.90
6307;DHT22;3186;54.062;9.962;2022-11-15T17:33:25;9.40;99.90
6307;DHT22;3186;54.062;9.962;2022-11-15T17:36:00;9.40;99.90
6307;DHT22;3186;54.062;9.962;2022-11-15T17:38:28;9.40;99.90
6307;DHT22;3186;54.062;9.962;2022-11-15T17:41:04;9.40;99.90
6307;DHT22;3186;54.062;9.962;2022-11-15T17:43:32;9.40;99.90
6307;DHT22;3186;54.062;9.962;2022-11-15T17:46:00;9.30;99.90
6307;DHT22;3186;54.062;9.962;2022-11-15T17:48:29;9.30;99.90
6307;DHT22;3186;54.062;9.962;2022-11-15T17:51:01;9.30;99.90
6307;DHT22;3186;54.062;9.962;2022-11-15T17:53:32;9.30;99.90
6307;DHT22;3186;54.062;9.962;2022-11-15T17:56:02;9.30;99.90
6307;DHT22;3186;54.062;9.962;2022-11-15T17:58:29;9.30;99.90
6307;DHT22;3186;54.062;9.962;2022-11-15T18:01:25;9.30;99.90
6307;DHT22;3186;54.062;9.962;2022-11-15T18:03:50;9.30;99.90
6307;DHT22;3186;54.062;9.962;2022-11-15T18:06:17;9.30;99.90
6307;DHT22;3186;54.062;9.962;2022-11-15T18:08:45;9.20;99.90
6307;DHT22;3186;54.062;9.962;2022-11-15T18:13:40;9.20;99.90
6307;DHT22;3186;54.062;9.962;2022-11-15T18:16:10;9.20;99.90
6307;DHT22;3186;54.062;9.962;2022-11-15T18:18:36;9.20;99.90
6307;DHT22;3186;54.062;9.962;2022-11-15T18:21:08;9.20;99.90
6307;DHT22;3186;54.062;9.962;2022-11-15T18:23:35;9.20;99.90
6307;DHT22;3186;54.062;9.962;2022-11-15T18:26:02;9.20;99.90
6307;DHT22;3186;54.062;9.962;2022-11-15T18:28:37;9.20;99.90
6307;DHT22;3186;54.062;9.962;2022-11-15T18:31:11;9.20;99.90
6307;DHT22;3186;54.062;9.962;2022-11-15T18:33:37;9.20;99.90
6307;DHT22;3186;54.062;9.962;2022-11-15T18:36:05;9.20;99.90
6307;DHT22;3186;54.062;9.962;2022-11-15T18:38:32;9.20;99.90
6307;DHT22;3186;54.062;9.962;2022-11-15T18:41:07;9.10;99.90
6307;DHT22;3186;54.062;9.962;2022-11-15T18:43:33;9.20;99.90
6307;DHT22;3186;54.062;9.962;2022-11-15T18:46:04;9.20;99.90
6307;DHT22;3186;54.062;9.962;2022-11-15T18:48:32;9.20;99.90
6307;DHT22;3186;54.062;9.962;2022-11-15T18:51:02;9.20;99.90
6307;DHT22;3186;54.062;9.962;2022-11-15T18:53:28;9.30;99.90
6307;DHT22;3186;54.062;9.962;2022-11-15T18:55:58;9.20;99.90
6307;DHT22;3186;54.062;9.962;2022-11-15T18:58:24;9.30;99.90
6307;DHT22;3186;54.062;9.962;2022-11-15T19:00:49;9.20;99.90
6307;DHT22;3186;54.062;9.962;2022-11-15T19:03:15;9.30;99.90
6307;DHT22;3186;54.062;9.962;2022-11-15T19:05:41;9.20;99.90
6307;DHT22;3186;54.062;9.962;2022-11-15T19:08:07;9.20;99.90
6307;DHT22;3186;54.062;9.962;2022-11-15T19:10:33;9.30;99.90
6307;DHT22;3186;54.062;9.962;2022-11-15T19:12:59;9.30;99.90
6307;DHT22;3186;54.062;9.962;2022-11-15T19:15:25;9.30;99.90
6307;DHT22;3186;54.062;9.962;2022-11-15T19:17:51;9.30;99.90
6307;DHT22;3186;54.062;9.962;2022-11-15T19:20:16;9.40;99.90
6307;DHT22;3186;54.062;9.962;2022-11-15T19:22:42;9.40;99.90
6307;DHT22;3186;54.062;9.962;2022-11-15T19:25:08;9.30;99.90
6307;DHT22;3186;54.062;9.962;2022-11-15T19:27:35;9.30;99.90
6307;DHT22;3186;54.062;9.962;2022-11-15T19:30:01;9.40;99.90
6307;DHT22;3186;54.062;9.962;2022-11-15T19:32:27;9.30;99.90
6307;DHT22;3186;54.062;9.962;2022-11-15T19:34:53;9.40;99.90
6307;DHT22;3186;54.062;9.962;2022-11-15T19:37:19;9.30;99.90
6307;DHT22;3186;54.062;9.962;2022-11-15T19:39:44;9.30;99.90
6307;DHT22;3186;54.062;9.962;2022-11-15T19:42:10;9.40;99.90
6307;DHT22;3186;54.062;9.962;2022-11-15T19:44:36;9.40;99.90